Time;durP1;ratioP1;P1;durP2;ratioP2;P2;SDS_P1;SDS_P2;PMS_P1;PMS_P2;Temp;Humidity;BMP_temperature;BMP_pressure;BME280_temperature;BME280_humidity;BME280_pressure;Samples;Min_cycle;Max_cycle;Signal;HPM_P1;HPM_P2
2021/06/16 00:01:01;;;;;;;23.67;7.20;;;;;;;17.21;59.69;101661.47;5064531;28;20036;-63
2021/06/16 00:03:26;;;;;;;19.90;7.20;;;;;;;17.18;60.13;101662.41;5065395;28;20082;-63
2021/06/16 00:05:52;;;;;;;21.02;6.95;;;;;;;17.16;59.90;101652.63;5062869;28;20067;-63
2021/06/16 00:08:17;;;;;;;22.08;6.78;;;;;;;17.05;60.07;101647.38;5066029;28;20028;-63
2021/06/16 00:10:42;;;;;;;20.60;6.82;;;;;;;16.93;60.65;101640.38;5063125;28;20071;-63
2021/06/16 00:13:08;;;;;;;20.15;7.22;;;;;;;16.83;61.48;101649.34;5065340;28;20035;-63
2021/06/16 00:15:36;;;;;;;21.00;7.53;;;;;;;16.77;62.43;101649.41;5064459;28;20052;-63
2021/06/16 00:18:03;;;;;;;20.60;6.95;;;;;;;16.76;62.31;101651.19;5064013;28;20017;-63
2021/06/16 00:20:29;;;;;;;22.30;7.43;;;;;;;16.73;62.42;101648.53;5064751;28;20027;-63
2021/06/16 00:22:55;;;;;;;19.58;6.85;;;;;;;16.67;62.97;101649.50;5062849;28;20599;-63
2021/06/16 00:25:21;;;;;;;21.65;7.30;;;;;;;16.64;62.33;101644.16;5066170;28;20033;-63
2021/06/16 00:27:46;;;;;;;23.52;7.65;;;;;;;16.74;62.47;101647.63;5058479;28;20040;-63
2021/06/16 00:30:12;;;;;;;22.33;7.30;;;;;;;16.67;61.95;101638.81;5065387;28;20020;-63
2021/06/16 00:32:39;;;;;;;22.85;8.00;;;;;;;16.72;61.42;101642.31;5063361;28;20029;-63
2021/06/16 00:35:05;;;;;;;22.38;8.05;;;;;;;16.65;62.86;101640.59;5064246;28;20024;-63
2021/06/16 00:37:32;;;;;;;21.92;7.60;;;;;;;16.46;62.97;101638.97;5064229;28;20387;-63
2021/06/16 00:39:58;;;;;;;21.48;8.07;;;;;;;16.27;63.80;101628.44;5063022;28;20480;-63
2021/06/16 00:42:24;;;;;;;24.92;8.60;;;;;;;16.17;63.75;101621.38;5065441;28;20063;-64
2021/06/16 00:44:49;;;;;;;23.90;9.05;;;;;;;16.13;63.56;101630.28;5061980;28;20025;-63
2021/06/16 00:47:16;;;;;;;21.55;8.48;;;;;;;16.20;62.63;101626.69;5065059;28;20043;-63
2021/06/16 00:49:42;;;;;;;22.95;8.45;;;;;;;16.16;63.37;101632.94;5062732;28;20029;-63
2021/06/16 00:52:07;;;;;;;24.58;8.57;;;;;;;16.17;62.77;101626.72;5064364;28;20152;-63
2021/06/16 00:54:34;;;;;;;22.23;8.93;;;;;;;16.20;63.64;101624.91;5063692;28;20124;-63
2021/06/16 00:57:01;;;;;;;23.65;9.00;;;;;;;16.16;62.98;101620.50;5063335;28;20182;-63
2021/06/16 00:59:32;;;;;;;21.65;9.02;;;;;;;16.17;63.77;101613.38;5064669;28;20025;-63
2021/06/16 01:01:58;;;;;;;22.98;8.63;;;;;;;16.21;62.85;101615.13;5061395;28;20025;-63
2021/06/16 01:04:30;;;;;;;23.25;9.45;;;;;;;16.13;62.68;101616.97;5065028;28;20031;-65
2021/06/16 01:07:06;;;;;;;22.85;8.88;;;;;;;16.13;62.28;101611.63;5061917;28;20456;-64
2021/06/16 01:09:43;;;;;;;21.90;9.18;;;;;;;16.17;62.02;101611.59;5063925;28;20060;-64
2021/06/16 01:12:21;;;;;;;23.23;9.70;;;;;;;16.12;61.81;101618.75;5063972;28;20029;-64
2021/06/16 01:14:59;;;;;;;22.40;9.18;;;;;;;16.23;61.75;101618.66;5056100;28;20035;-64
2021/06/16 01:17:35;;;;;;;22.52;9.40;;;;;;;16.18;61.79;101617.84;5059043;28;20032;-63
2021/06/16 01:20:03;;;;;;;23.15;9.75;;;;;;;16.10;62.41;101614.31;5063708;28;20490;-63
2021/06/16 01:22:33;;;;;;;23.50;10.32;;;;;;;16.09;62.18;101618.78;5062249;28;20487;-64
2021/06/16 01:25:06;;;;;;;22.40;9.63;;;;;;;16.03;62.80;101608.13;5063869;28;20391;-64
2021/06/16 01:27:32;;;;;;;25.10;9.90;;;;;;;16.00;63.21;101614.38;5062856;28;20033;-63
2021/06/16 01:29:59;;;;;;;22.75;10.38;;;;;;;16.03;63.98;101619.69;5063809;28;20021;-64
2021/06/16 01:32:24;;;;;;;22.45;10.15;;;;;;;15.95;63.74;101612.63;5061031;28;20029;-64
2021/06/16 01:34:51;;;;;;;23.23;9.85;;;;;;;15.86;63.68;101610.91;5064798;28;20356;-65
2021/06/16 01:37:17;;;;;;;24.92;10.25;;;;;;;15.79;64.26;101615.38;5061397;28;20040;-64
2021/06/16 01:39:44;;;;;;;23.25;9.98;;;;;;;15.73;64.26;101614.47;5063991;28;20029;-64
2021/06/16 01:42:17;;;;;;;22.95;9.98;;;;;;;15.71;64.45;101606.47;5062228;28;20031;-63
2021/06/16 01:44:42;;;;;;;23.10;10.30;;;;;;;15.62;64.60;101609.19;5063873;28;20052;-64
2021/06/16 01:47:09;;;;;;;23.77;10.10;;;;;;;15.58;64.56;101600.34;5062440;28;20109;-64
2021/06/16 01:49:35;;;;;;;22.45;10.48;;;;;;;15.50;64.70;101604.81;5062667;28;20379;-67
2021/06/16 01:52:03;;;;;;;23.05;10.32;;;;;;;15.48;65.25;101598.63;5063556;28;20028;-66
2021/06/16 01:54:30;;;;;;;24.92;10.48;;;;;;;15.46;65.00;101598.59;5061735;28;20028;-66
2021/06/16 01:56:57;;;;;;;23.42;10.48;;;;;;;15.46;65.06;101600.38;5063774;28;20038;-66
2021/06/16 01:59:24;;;;;;;22.90;10.70;;;;;;;15.39;66.34;101596.88;5061357;28;20057;-62
2021/06/16 02:01:50;;;;;;;22.83;11.05;;;;;;;15.41;66.61;101596.88;5064617;28;20406;-62
2021/06/16 02:04:16;;;;;;;23.02;11.30;;;;;;;15.32;67.56;101600.47;5061076;28;20029;-62
2021/06/16 02:06:44;;;;;;;25.73;11.00;;;;;;;15.27;66.82;101603.09;5063353;28;20047;-63
2021/06/16 02:09:13;;;;;;;24.90;11.23;;;;;;;15.30;66.48;101596.88;5061792;28;20044;-62
2021/06/16 02:11:43;;;;;;;23.30;11.10;;;;;;;15.17;66.46;101593.38;5062851;28;20032;-64
2021/06/16 02:14:16;;;;;;;24.52;10.85;;;;;;;15.26;66.31;101597.78;5062020;28;20025;-64
2021/06/16 02:17:01;;;;;;;23.77;10.80;;;;;;;15.16;65.81;101592.50;5063538;28;20021;-62
2021/06/16 02:19:30;;;;;;;22.70;10.48;;;;;;;15.17;66.37;101582.72;5058933;28;20028;-62
2021/06/16 02:21:57;;;;;;;23.60;10.77;;;;;;;15.07;70.51;101587.22;5063866;28;20433;-62
2021/06/16 02:24:23;;;;;;;24.55;11.05;;;;;;;15.19;69.32;101580.06;5060703;28;20029;-62
2021/06/16 02:26:49;;;;;;;23.58;10.25;;;;;;;15.20;66.58;101581.84;5056647;28;20080;-63
2021/06/16 02:29:15;;;;;;;25.15;11.05;;;;;;;15.02;67.69;101577.47;5063944;28;20167;-63
2021/06/16 02:31:42;;;;;;;24.48;10.60;;;;;;;14.97;68.66;101570.38;5061732;28;20063;-63
2021/06/16 02:34:08;;;;;;;24.20;11.18;;;;;;;14.92;68.94;101568.59;5062817;28;20079;-63
2021/06/16 02:36:39;;;;;;;24.25;11.60;;;;;;;14.72;68.99;101573.94;5062492;28;20467;-64
2021/06/16 02:39:11;;;;;;;23.45;10.68;;;;;;;14.74;68.83;101570.41;5062414;28;20064;-63
2021/06/16 02:41:37;;;;;;;23.85;10.88;;;;;;;14.73;68.76;101567.75;5062309;28;20115;-63
2021/06/16 02:44:04;;;;;;;25.13;10.93;;;;;;;14.71;69.10;101566.84;5065455;28;20526;-63
2021/06/16 02:46:29;;;;;;;25.00;10.20;;;;;;;14.69;68.85;101563.31;5066840;28;20056;-63
2021/06/16 02:48:57;;;;;;;22.88;10.25;;;;;;;14.71;68.68;101558.84;5064810;28;20480;-63
2021/06/16 02:51:22;;;;;;;22.77;10.05;;;;;;;14.66;69.03;101560.66;5067612;28;20017;-63
2021/06/16 02:53:48;;;;;;;24.35;10.85;;;;;;;14.61;69.00;101550.91;5060090;28;20025;-66
2021/06/16 02:56:15;;;;;;;24.42;11.05;;;;;;;14.61;68.60;101555.31;5067077;28;20020;-64
2021/06/16 02:58:44;;;;;;;23.95;11.05;;;;;;;14.61;68.63;101550.00;5065301;28;20103;-66
2021/06/16 03:01:14;;;;;;;25.33;10.43;;;;;;;14.55;69.05;101548.22;5066583;28;20017;-63
2021/06/16 03:03:43;;;;;;;24.15;10.82;;;;;;;14.53;69.42;101542.00;5065601;28;20437;-63
2021/06/16 03:06:09;;;;;;;24.45;11.40;;;;;;;14.52;69.51;101545.56;5065800;28;20459;-63
2021/06/16 03:08:37;;;;;;;26.27;11.02;;;;;;;14.53;69.20;101538.47;5065634;28;20045;-64
2021/06/16 03:11:04;;;;;;;24.50;11.38;;;;;;;14.54;69.25;101543.78;5065494;28;20029;-64
2021/06/16 03:13:31;;;;;;;23.83;11.00;;;;;;;14.54;69.11;101538.47;5066426;28;20029;-63
2021/06/16 03:15:57;;;;;;;25.17;11.00;;;;;;;14.45;70.14;101522.53;5064204;28;20476;-63
2021/06/16 03:18:23;;;;;;;26.42;11.45;;;;;;;14.41;68.95;101528.72;5067455;28;20027;-62
2021/06/16 03:20:53;;;;;;;26.10;11.13;;;;;;;14.32;69.58;101532.28;5059583;28;20096;-63
2021/06/16 03:23:19;;;;;;;27.67;11.95;;;;;;;14.32;69.54;101532.28;5059602;28;20102;-63
2021/06/16 03:25:45;;;;;;;25.17;11.18;;;;;;;14.26;71.45;101532.28;5066682;28;20028;-63
2021/06/16 03:28:11;;;;;;;23.50;11.63;;;;;;;14.25;72.79;101534.03;5064878;28;20423;-62
2021/06/16 03:30:37;;;;;;;25.05;11.65;;;;;;;14.18;73.95;101532.25;5065436;28;20021;-63
2021/06/16 03:33:04;;;;;;;24.52;12.00;;;;;;;14.22;73.19;101542.00;5065878;28;20024;-63
2021/06/16 03:35:29;;;;;;;24.75;11.70;;;;;;;14.15;72.41;101534.91;5064259;28;20460;-63
2021/06/16 03:37:55;;;;;;;26.55;12.00;;;;;;;14.25;71.21;101539.34;5066634;28;20074;-62
2021/06/16 03:40:25;;;;;;;24.50;12.15;;;;;;;14.26;71.37;101538.47;5063431;28;20025;-63
2021/06/16 03:42:50;;;;;;;26.38;11.93;;;;;;;14.32;70.69;101528.75;5059734;28;20494;-67
2021/06/16 03:45:17;;;;;;;24.55;11.82;;;;;;;14.39;70.47;101527.84;5066270;28;20111;-67
2021/06/16 03:47:46;;;;;;;30.55;12.70;;;;;;;14.34;71.24;101525.16;5064178;28;20020;-67
2021/06/16 03:50:18;;;;;;;26.75;11.70;;;;;;;14.32;70.77;101526.94;5065845;28;20040;-67
2021/06/16 03:52:44;;;;;;;24.23;12.60;;;;;;;14.37;70.49;101516.31;5063903;28;20028;-67
2021/06/16 03:55:10;;;;;;;23.98;11.88;;;;;;;14.43;69.89;101514.53;5064635;28;20472;-64
2021/06/16 03:57:37;;;;;;;27.15;12.52;;;;;;;14.38;70.01;101520.75;5065109;28;20406;-63
2021/06/16 04:00:05;;;;;;;25.65;12.77;;;;;;;14.30;70.66;101511.00;5064680;28;20036;-64
2021/06/16 04:02:31;;;;;;;23.67;12.43;;;;;;;14.29;70.51;101511.00;5065642;28;20028;-65
2021/06/16 04:05:01;;;;;;;25.20;12.70;;;;;;;14.42;70.74;101509.22;5063337;28;20041;-63
2021/06/16 04:07:27;;;;;;;26.77;13.63;;;;;;;14.41;70.27;101513.63;5065710;28;20038;-64
2021/06/16 04:09:54;;;;;;;26.05;13.07;;;;;;;14.43;71.13;101513.63;5062615;28;20601;-66
2021/06/16 04:12:20;;;;;;;26.52;13.48;;;;;;;14.46;71.31;101503.91;5059058;28;20029;-62
2021/06/16 04:14:48;;;;;;;24.10;13.88;;;;;;;14.47;71.83;101502.09;5065680;28;20457;-66
2021/06/16 04:17:17;;;;;;;26.05;13.95;;;;;;;14.43;73.94;101498.59;5063513;28;20031;-65
2021/06/16 04:19:42;;;;;;;27.90;15.13;;;;;;;14.56;72.91;101496.78;5065351;28;20027;-64
2021/06/16 04:22:07;;;;;;;28.40;14.85;;;;;;;14.59;72.49;101499.44;5063986;28;20387;-63
2021/06/16 04:24:33;;;;;;;25.92;13.95;;;;;;;14.67;71.90;101495.91;5063519;28;20021;-66
2021/06/16 04:26:58;;;;;;;27.30;14.85;;;;;;;14.77;70.88;101500.31;5065195;28;20527;-66
2021/06/16 04:29:24;;;;;;;27.42;15.35;;;;;;;14.77;72.07;101497.66;5062350;28;20103;-66
2021/06/16 04:31:49;;;;;;;26.52;14.25;;;;;;;14.86;71.73;101505.63;5058370;28;20021;-66
2021/06/16 04:34:15;;;;;;;27.70;14.90;;;;;;;14.90;70.46;101499.41;5065046;28;20035;-66
2021/06/16 04:36:40;;;;;;;28.58;14.77;;;;;;;14.87;71.60;101486.09;5063328;28;20037;-66
2021/06/16 04:39:05;;;;;;;27.95;14.98;;;;;;;14.88;69.85;101490.53;5063783;28;20123;-65
2021/06/16 04:41:31;;;;;;;28.98;14.60;;;;;;;14.87;70.32;101486.09;5064915;28;20100;-66
2021/06/16 04:43:56;;;;;;;30.05;14.95;;;;;;;14.88;70.64;101490.53;5062267;28;20376;-66
2021/06/16 04:46:24;;;;;;;28.77;14.73;;;;;;;14.89;70.42;101489.63;5065560;28;20024;-66
2021/06/16 04:48:50;;;;;;;28.80;14.95;;;;;;;14.97;70.73;101490.50;5058034;28;20025;-66
2021/06/16 04:51:15;;;;;;;26.83;15.00;;;;;;;15.10;69.86;101486.00;5064703;28;20025;-66
2021/06/16 04:53:40;;;;;;;27.63;14.95;;;;;;;15.13;69.98;101486.00;5063252;28;20017;-66
2021/06/16 04:56:06;;;;;;;28.98;15.18;;;;;;;15.20;69.37;101485.97;5063253;28;20017;-67
2021/06/16 04:58:31;;;;;;;27.35;14.77;;;;;;;15.24;69.79;101477.94;5064446;28;20020;-66
2021/06/16 05:00:57;;;;;;;27.77;15.18;;;;;;;15.26;70.06;101476.19;5062245;28;20021;-66
2021/06/16 05:03:22;;;;;;;28.80;15.13;;;;;;;15.30;69.27;101477.03;5065102;28;20383;-66
2021/06/16 05:05:47;;;;;;;29.75;15.88;;;;;;;15.34;69.49;101479.66;5061430;28;20052;-66
2021/06/16 05:08:13;;;;;;;30.00;15.50;;;;;;;15.32;69.90;101470.81;5064364;28;20434;-67
2021/06/16 05:10:38;;;;;;;29.90;15.50;;;;;;;15.38;71.10;101477.88;5062819;28;20024;-66
2021/06/16 05:13:03;;;;;;;29.30;16.25;;;;;;;15.49;69.77;101472.50;5062583;28;20023;-65
2021/06/16 05:15:29;;;;;;;31.77;16.23;;;;;;;15.50;70.30;101468.94;5064367;28;20094;-67
2021/06/16 05:17:54;;;;;;;30.50;15.60;;;;;;;15.59;70.54;101457.34;5061619;28;20078;-65
2021/06/16 05:20:20;;;;;;;30.55;15.95;;;;;;;15.62;70.04;101468.84;5065139;28;20024;-66
2021/06/16 05:22:48;;;;;;;28.60;15.85;;;;;;;15.73;69.88;101466.13;5061970;28;20063;-66
2021/06/16 05:25:15;;;;;;;27.85;15.70;;;;;;;15.85;69.66;101467.84;5063713;28;20057;-67
2021/06/16 05:27:40;;;;;;;28.30;15.68;;;;;;;15.95;69.25;101472.19;5062451;28;20040;-66
2021/06/16 05:30:07;;;;;;;30.65;16.05;;;;;;;16.01;69.12;101460.59;5057810;28;20024;-63
2021/06/16 05:32:32;;;;;;;32.22;17.02;;;;;;;16.12;68.69;101468.50;5060589;28;20086;-64
2021/06/16 05:34:58;;;;;;;30.88;16.27;;;;;;;16.17;68.64;101470.22;5062414;28;20025;-62
2021/06/16 05:37:23;;;;;;;30.25;17.33;;;;;;;16.29;67.50;101465.69;5057767;28;20062;-63
2021/06/16 05:39:50;;;;;;;31.88;17.95;;;;;;;16.42;68.25;101464.66;5059771;28;20451;-61
2021/06/16 05:42:15;;;;;;;30.15;17.83;;;;;;;16.41;67.75;101467.34;5061344;28;20040;-61
2021/06/16 05:44:41;;;;;;;31.38;17.80;;;;;;;16.54;67.73;101463.66;5060888;28;20025;-61
2021/06/16 05:47:06;;;;;;;30.35;18.60;;;;;;;16.62;68.14;101461.78;5060151;28;20025;-65
2021/06/16 05:49:31;;;;;;;29.35;17.92;;;;;;;16.75;66.52;101454.53;5060454;28;20020;-61
2021/06/16 05:51:57;;;;;;;32.17;17.27;;;;;;;16.89;66.12;101447.28;5062201;28;20056;-61
2021/06/16 05:54:23;;;;;;;30.35;17.50;;;;;;;16.93;66.07;101453.44;5059767;28;20021;-63
2021/06/16 05:56:48;;;;;;;30.13;17.58;;;;;;;17.03;66.27;101452.44;5062620;28;20093;-62
2021/06/16 05:59:14;;;;;;;29.38;18.17;;;;;;;17.05;66.77;101455.97;5058763;28;20027;-61
2021/06/16 06:01:39;;;;;;;28.55;16.75;;;;;;;17.19;65.94;101449.56;5063478;28;20021;-62
2021/06/16 06:04:08;;;;;;;30.00;17.30;;;;;;;17.26;65.80;101451.25;5060062;28;20025;-62
2021/06/16 06:06:35;;;;;;;29.27;16.60;;;;;;;17.42;65.08;101442.09;5060037;28;20037;-62
2021/06/16 06:09:01;;;;;;;29.15;15.95;;;;;;;17.52;65.37;101442.84;5064933;28;20056;-62
2021/06/16 06:11:27;;;;;;;28.38;16.05;;;;;;;17.58;64.34;101448.09;5056699;28;20086;-66
2021/06/16 06:13:52;;;;;;;27.95;16.05;;;;;;;17.69;63.56;101442.59;5061948;28;20028;-62
2021/06/16 06:16:18;;;;;;;29.35;16.45;;;;;;;17.78;64.25;101434.44;5061115;28;20043;-66
2021/06/16 06:18:44;;;;;;;27.92;15.20;;;;;;;17.86;63.44;101436.09;5067724;28;20035;-68
2021/06/16 06:21:10;;;;;;;26.95;15.82;;;;;;;17.91;63.21;101435.16;5062958;28;20616;-66
2021/06/16 06:23:36;;;;;;;28.17;15.02;;;;;;;18.05;62.99;101428.66;5068619;28;20036;-65
2021/06/16 06:26:02;;;;;;;29.30;15.63;;;;;;;18.20;62.63;101430.19;5061723;28;20094;-63
2021/06/16 06:28:27;;;;;;;28.27;15.50;;;;;;;18.32;61.38;101427.28;5065002;28;20025;-65
2021/06/16 06:30:53;;;;;;;28.30;15.45;;;;;;;18.42;61.72;101425.31;5066890;28;20032;-64
2021/06/16 06:33:18;;;;;;;28.60;15.23;;;;;;;18.58;60.88;101417.84;5065118;28;20349;-63
2021/06/16 06:35:44;;;;;;;26.67;14.48;;;;;;;18.69;61.22;101418.53;5064426;28;20039;-67
2021/06/16 06:38:11;;;;;;;30.70;18.33;;;;;;;18.82;60.96;101417.34;5067024;28;20471;-64
2021/06/16 06:40:37;;;;;;;27.17;14.63;;;;;;;18.95;59.74;101414.47;5063684;28;20024;-66
2021/06/16 06:43:02;;;;;;;26.45;14.25;;;;;;;19.09;58.93;101414.16;5064729;28;20392;-64
2021/06/16 06:45:28;;;;;;;27.13;14.20;;;;;;;19.17;58.82;101410.38;5066477;28;20025;-66
2021/06/16 06:47:53;;;;;;;27.45;14.35;;;;;;;19.31;59.47;101407.41;5062368;28;20037;-64
2021/06/16 06:50:19;;;;;;;29.63;15.02;;;;;;;19.41;58.55;101407.19;5067037;28;20099;-66
2021/06/16 06:52:47;;;;;;;29.30;14.43;;;;;;;19.50;59.09;101399.81;5066345;28;20020;-65
2021/06/16 06:55:13;;;;;;;27.50;14.80;;;;;;;19.62;57.36;101397.75;5067977;28;20028;-66
2021/06/16 06:57:39;;;;;;;26.50;13.63;;;;;;;19.68;57.26;101392.22;5062344;28;20165;-67
2021/06/16 07:00:06;;;;;;;27.35;13.30;;;;;;;19.80;57.85;101401.81;5062684;28;20032;-64
2021/06/16 07:02:32;;;;;;;27.95;14.13;;;;;;;19.90;56.92;101399.78;5068986;28;20391;-64
2021/06/16 07:04:57;;;;;;;27.85;14.35;;;;;;;20.03;57.51;101401.22;5061553;28;20025;-65
2021/06/16 07:07:22;;;;;;;27.67;14.32;;;;;;;20.12;56.07;101390.22;5068225;28;20396;-70
2021/06/16 07:09:48;;;;;;;26.05;13.68;;;;;;;20.24;56.34;101396.19;5065281;28;20044;-67
2021/06/16 07:12:14;;;;;;;27.95;14.18;;;;;;;20.40;56.03;101391.28;5064624;28;20104;-66
2021/06/16 07:14:40;;;;;;;28.50;14.98;;;;;;;20.51;55.19;101376.63;5059791;28;20498;-67
2021/06/16 07:17:06;;;;;;;26.63;14.25;;;;;;;20.58;55.34;101377.34;5062637;28;20067;-65
2021/06/16 07:19:31;;;;;;;28.05;13.75;;;;;;;20.72;55.18;101379.63;5065522;28;20120;-64
2021/06/16 07:21:57;;;;;;;26.17;13.65;;;;;;;20.83;54.79;101372.13;5066341;28;20025;-66
2021/06/16 07:24:22;;;;;;;27.40;13.95;;;;;;;20.95;54.57;101370.00;5066204;28;20036;-66
2021/06/16 07:26:48;;;;;;;24.92;13.70;;;;;;;21.14;55.01;101368.50;5064284;28;20024;-65
2021/06/16 07:29:13;;;;;;;28.98;14.13;;;;;;;21.19;54.13;101365.69;5061685;28;20100;-68
2021/06/16 07:31:38;;;;;;;28.77;13.88;;;;;;;21.36;53.55;101367.81;5065034;28;20016;-65
2021/06/16 07:34:04;;;;;;;25.25;12.98;;;;;;;21.51;53.78;101358.38;5058335;28;20032;-65
2021/06/16 07:36:29;;;;;;;26.50;12.30;;;;;;;21.63;52.43;101362.50;5061224;28;20029;-65
2021/06/16 07:38:55;;;;;;;24.92;11.93;;;;;;;21.74;51.14;101366.59;5062592;28;20033;-67
2021/06/16 07:41:20;;;;;;;23.58;11.57;;;;;;;21.87;50.78;101367.03;5063239;28;20480;-66
2021/06/16 07:43:46;;;;;;;23.60;11.32;;;;;;;21.96;50.45;101364.94;5061912;28;20021;-68
2021/06/16 07:46:11;;;;;;;24.42;11.10;;;;;;;22.11;51.52;101367.09;5062155;28;20418;-67
2021/06/16 07:48:36;;;;;;;25.98;11.50;;;;;;;22.27;49.75;101357.53;5059412;28;20035;-68
2021/06/16 07:51:02;;;;;;;24.70;10.57;;;;;;;22.37;49.04;101354.56;5063083;28;20029;-68
2021/06/16 07:53:27;;;;;;;24.20;10.48;;;;;;;22.43;48.32;101354.31;5062137;28;20029;-68
2021/06/16 07:55:54;;;;;;;23.35;10.10;;;;;;;22.58;48.64;101356.41;5057718;28;20464;-68
2021/06/16 07:58:20;;;;;;;24.05;9.75;;;;;;;22.68;47.38;101348.88;5061213;28;20032;-67
2021/06/16 08:00:45;;;;;;;25.95;10.85;;;;;;;22.75;46.59;101349.53;5060891;28;20052;-66
2021/06/16 08:03:11;;;;;;;26.85;10.10;;;;;;;22.90;46.35;101343.53;5057236;28;20060;-66
2021/06/16 08:05:36;;;;;;;23.10;9.13;;;;;;;22.98;46.00;101335.16;5058142;28;20036;-68
2021/06/16 08:08:02;;;;;;;22.90;9.45;;;;;;;23.01;45.48;101342.22;5058660;28;20049;-68
2021/06/16 08:10:30;;;;;;;24.35;9.93;;;;;;;23.16;45.99;101336.25;5060009;28;20384;-66
2021/06/16 08:12:55;;;;;;;25.58;10.02;;;;;;;23.30;46.14;101341.09;5061310;28;20465;-66
2021/06/16 08:15:21;;;;;;;24.23;10.18;;;;;;;23.42;45.52;101340.56;5054890;28;20151;-66
2021/06/16 08:17:46;;;;;;;24.08;9.57;;;;;;;23.55;44.73;101334.63;5061917;28;20025;-67
2021/06/16 08:20:11;;;;;;;23.23;9.38;;;;;;;23.60;44.98;101333.50;5058763;28;20025;-66
2021/06/16 08:22:37;;;;;;;25.10;8.85;;;;;;;23.77;44.98;101335.50;5059253;28;20103;-66
2021/06/16 08:25:06;;;;;;;22.98;9.27;;;;;;;23.88;44.51;101332.34;5054491;28;20044;-68
2021/06/16 08:27:32;;;;;;;23.35;9.32;;;;;;;23.90;44.33;101329.59;5057727;28;20100;-66
2021/06/16 08:29:57;;;;;;;25.20;9.25;;;;;;;24.04;44.51;101324.44;5059042;28;20436;-65
2021/06/16 08:32:22;;;;;;;23.45;9.27;;;;;;;24.18;43.93;101322.00;5062844;28;20021;-66
2021/06/16 08:34:48;;;;;;;23.73;9.95;;;;;;;24.34;43.13;101324.03;5060889;28;20036;-67
2021/06/16 08:37:13;;;;;;;23.50;9.05;;;;;;;24.47;43.90;101327.03;5063698;28;20027;-67
2021/06/16 08:39:38;;;;;;;21.50;8.80;;;;;;;24.55;43.03;101319.44;5062478;28;20144;-65
2021/06/16 08:42:06;;;;;;;25.30;9.10;;;;;;;24.67;42.46;101312.63;5064368;28;20039;-65
2021/06/16 08:44:32;;;;;;;23.08;8.90;;;;;;;24.78;42.39;101306.69;5058395;28;20049;-66
2021/06/16 08:46:57;;;;;;;24.42;9.15;;;;;;;24.85;42.14;101308.16;5060197;28;20040;-67
2021/06/16 08:49:24;;;;;;;22.85;8.48;;;;;;;24.99;42.71;101305.66;5060714;28;20055;-70
2021/06/16 08:51:49;;;;;;;23.40;9.50;;;;;;;25.12;41.95;101305.03;5059881;28;20040;-69
2021/06/16 08:54:15;;;;;;;23.58;8.60;;;;;;;25.35;41.77;101307.53;5061303;28;20032;-64
2021/06/16 08:56:40;;;;;;;23.45;8.45;;;;;;;25.50;41.96;101305.88;5059490;28;20035;-64
2021/06/16 08:59:05;;;;;;;24.55;9.23;;;;;;;25.55;40.76;101300.22;5060304;28;20472;-64
2021/06/16 09:01:30;;;;;;;25.13;9.25;;;;;;;25.65;41.09;101306.03;5059116;28;20115;-65
2021/06/16 09:03:56;;;;;;;21.98;8.75;;;;;;;25.67;40.87;101296.84;5060582;28;20103;-66
2021/06/16 09:06:29;;;;;;;21.45;7.25;;;;;;;25.89;41.35;101306.56;5058865;28;20561;-65
2021/06/16 09:09:05;;;;;;;22.88;7.30;;;;;;;26.15;39.99;101305.19;5056671;28;20033;-65
2021/06/16 09:11:47;;;;;;;21.17;7.05;;;;;;;26.38;39.13;101309.38;5047012;28;20100;-66
2021/06/16 09:14:20;;;;;;;23.30;8.10;;;;;;;26.39;38.51;101311.13;5058880;28;20063;-66
2021/06/16 09:16:46;;;;;;;22.70;7.57;;;;;;;26.50;38.88;101304.25;5055879;28;20025;-66
2021/06/16 09:19:23;;;;;;;21.40;7.57;;;;;;;26.72;38.58;101302.13;5058836;28;20103;-65
2021/06/16 09:21:57;;;;;;;21.42;7.18;;;;;;;26.90;38.02;101305.59;5053722;28;20047;-67
2021/06/16 09:24:23;;;;;;;20.80;7.70;;;;;;;27.01;37.22;101299.56;5058143;28;20104;-66
2021/06/16 09:26:48;;;;;;;22.52;7.15;;;;;;;27.06;38.11;101297.47;5058918;28;20155;-66
2021/06/16 09:29:13;;;;;;;20.30;6.53;;;;;;;27.09;37.56;101294.56;5057767;28;20143;-66
2021/06/16 09:31:41;;;;;;;19.40;6.68;;;;;;;27.23;36.68;101295.59;5062095;28;20029;-67
2021/06/16 09:34:13;;;;;;;21.40;6.70;;;;;;;27.43;37.17;101287.19;5057352;28;20036;-64
2021/06/16 09:36:49;;;;;;;21.55;7.18;;;;;;;27.44;37.41;101286.22;5060217;28;20028;-66
2021/06/16 09:39:19;;;;;;;21.35;7.60;;;;;;;27.26;36.60;101284.56;5061953;28;20174;-66
2021/06/16 09:42:12;;;;;;;20.95;7.05;;;;;;;27.40;37.37;101284.66;5062480;28;20052;-66
2021/06/16 09:44:41;;;;;;;20.83;6.93;;;;;;;27.64;36.69;101284.16;5059334;28;20029;-66
2021/06/16 09:47:14;;;;;;;21.58;7.72;;;;;;;27.81;37.55;101281.28;5063333;28;20036;-64
2021/06/16 09:49:56;;;;;;;23.48;9.13;;;;;;;27.89;36.50;101283.53;5062152;28;20104;-66
2021/06/16 09:52:27;;;;;;;21.17;7.80;;;;;;;27.85;36.26;101281.97;5060816;28;20098;-67
2021/06/16 09:54:52;;;;;;;20.30;7.33;;;;;;;28.07;35.71;101265.22;5064146;28;20029;-66
2021/06/16 09:57:17;;;;;;;22.00;8.23;;;;;;;28.19;35.92;101269.00;5049899;28;20082;-66
2021/06/16 09:59:47;;;;;;;22.73;7.85;;;;;;;28.30;35.69;101265.63;5054175;28;20013;-65
2021/06/16 10:02:20;;;;;;;21.23;8.23;;;;;;;28.37;34.90;101272.41;5058925;28;20116;-63
2021/06/16 10:04:49;;;;;;;20.38;7.63;;;;;;;28.91;34.63;101254.44;5054998;28;20039;-64
2021/06/16 10:07:28;;;;;;;20.48;7.38;;;;;;;29.80;33.93;101264.72;5055751;28;20037;-65
2021/06/16 10:09:58;;;;;;;20.85;6.90;;;;;;;31.41;30.28;101259.34;5058511;28;20055;-64
2021/06/16 10:12:31;;;;;;;19.30;6.97;;;;;;;33.16;28.32;101264.44;5056025;28;20463;-64
2021/06/16 10:14:59;;;;;;;20.65;8.20;;;;;;;33.89;25.64;101259.16;5059421;28;20595;-69
2021/06/16 10:17:25;;;;;;;21.25;7.32;;;;;;;34.91;25.38;101247.28;5056632;28;20029;-70
2021/06/16 10:19:51;;;;;;;21.48;7.05;;;;;;;35.80;24.31;101250.84;5057624;28;20411;-72
2021/06/16 10:22:18;;;;;;;21.75;7.28;;;;;;;36.41;23.29;101252.25;5062286;28;20048;-70
2021/06/16 10:24:43;;;;;;;20.83;7.78;;;;;;;37.05;22.67;101247.66;5056254;28;20028;-68
2021/06/16 10:27:14;;;;;;;20.25;7.72;;;;;;;37.07;22.92;101245.59;5063388;28;20375;-72
2021/06/16 10:29:42;;;;;;;20.75;7.90;;;;;;;37.50;22.17;101252.19;5060874;28;20418;-71
2021/06/16 10:32:11;;;;;;;22.10;7.65;;;;;;;37.81;21.76;101256.41;5062699;28;20033;-70
2021/06/16 10:34:51;;;;;;;21.02;8.23;;;;;;;37.85;22.35;101264.19;5061574;28;20024;-72
2021/06/16 10:37:33;;;;;;;21.73;8.30;;;;;;;37.91;22.08;101250.75;5057105;28;20033;-71
2021/06/16 10:40:17;;;;;;;21.88;9.25;;;;;;;37.72;22.22;101246.31;5059973;28;20120;-66
2021/06/16 10:43:05;;;;;;;22.98;9.45;;;;;;;36.97;23.58;101247.56;5060957;28;20033;-70
2021/06/16 10:45:33;;;;;;;22.70;9.40;;;;;;;37.40;22.31;101243.16;5060264;28;20472;-69
2021/06/16 10:48:05;;;;;;;24.58;9.45;;;;;;;37.91;21.86;101250.75;5062302;28;20041;-69
2021/06/16 10:50:53;;;;;;;;;;;;;;;39.33;21.59;101254.72;5056603;28;20116;-68
2021/06/16 10:53:25;;;;;;;21.63;9.13;;;;;;;39.46;20.86;101243.16;5060241;28;20011;-67
2021/06/16 10:55:53;;;;;;;22.60;8.68;;;;;;;40.06;19.65;101241.88;5063902;28;20029;-67
2021/06/16 10:58:26;;;;;;;22.00;9.07;;;;;;;40.39;19.22;101242.59;5057510;28;20140;-69
2021/06/16 11:01:11;;;;;;;25.20;9.80;;;;;;;39.84;20.25;101247.06;5058852;28;20738;-69
2021/06/16 11:03:54;;;;;;;24.00;10.38;;;;;;;39.27;21.11;101236.94;5059983;28;20025;-70
2021/06/16 11:06:32;;;;;;;22.35;8.80;;;;;;;39.78;20.13;101239.50;5063795;28;20029;-67
2021/06/16 11:09:18;;;;;;;23.52;9.05;;;;;;;40.62;19.89;101225.19;5059160;28;20053;-66
2021/06/16 11:11:49;;;;;;;22.35;9.30;;;;;;;40.62;19.13;101225.19;5065992;28;20044;-65
2021/06/16 11:14:35;;;;;;;;;;;;;;;42.10;19.48;101220.25;5064068;28;20024;-67